ADDS METAR Data

Data at: 1830 UTC 20 Jul 2018

METAR for:KCON (Concord Muni, NH, US)
Text:KCON 201751Z AUTO 01005KT 10SM CLR 29/11 A3015 RMK AO2 SLP210 T02890111 10294 20172 58010
Temperature: 28.9°C ( 84°F)
Dewpoint: 11.1°C ( 52°F) [RH = 33%]
Pressure (altimeter):30.15 inches Hg (1021.1 mb) [Sea level pressure: 1021.0 mb]
Winds:from the N (10 degrees) at 6 MPH (5 knots; 2.6 m/s)
Visibility:10 or more sm (16+ km)
Ceiling:at least 12,000 feet AGL
Clouds:sky clear below 12,000 feet AGL
QC Flag:automated observation with no human augmentation